Time;durP1;ratioP1;P1;durP2;ratioP2;P2;SDS_P1;SDS_P2;PMS_P1;PMS_P2;Temp;Humidity;BMP_temperature;BMP_pressure;BME280_temperature;BME280_humidity;BME280_pressure;Samples;Min_cycle;Max_cycle;Signal;HPM_P1;HPM_P2
2021/10/07 19:54:40;;;;;;;15.93;9.02;;;12.90;99.90;;;8.47;95.30;102566.13;2552065;30;137558;-39
2021/10/07 19:57:07;;;;;;;13.70;8.05;;;10.20;99.90;;;8.41;95.22;102564.03;2570557;30;137614;-39
2021/10/07 19:59:35;;;;;;;12.70;6.53;;;10.10;99.90;;;8.30;95.11;102558.81;2569072;30;138800;-39
2021/10/07 20:02:03;;;;;;;14.18;7.65;;;10.00;99.90;;;8.31;95.07;102564.09;2570283;30;137056;-39
2021/10/07 20:04:30;;;;;;;12.10;6.95;;;10.00;99.90;;;8.29;94.44;102570.72;2569798;30;138537;-39
2021/10/07 20:06:58;;;;;;;12.55;7.43;;;9.90;99.90;;;8.12;94.96;102564.25;2570256;30;136609;-39
2021/10/07 20:09:25;;;;;;;13.00;7.28;;;9.90;99.90;;;8.09;95.30;102561.81;2569198;30;138219;-39
2021/10/07 20:11:53;;;;;;;11.60;7.18;;;9.80;99.90;;;8.06;95.44;102555.69;2569458;30;137797;-39
2021/10/07 20:14:21;;;;;;;11.93;7.40;;;9.80;99.90;;;8.04;95.28;102571.28;2568836;30;138345;-39
2021/10/07 20:16:51;;;;;;;14.13;7.72;;;9.70;99.90;;;7.98;95.37;102561.03;2569024;30;138570;-39
2021/10/07 20:19:18;;;;;;;12.98;7.78;;;9.60;99.90;;;7.96;95.66;102564.94;2570046;30;137606;-39
2021/10/07 20:21:46;;;;;;;13.07;7.05;;;9.60;99.90;;;7.90;96.00;102564.50;2570622;30;137301;-39
2021/10/07 20:24:14;;;;;;;;;;;9.60;99.90;;;7.87;96.31;102564.81;2568525;30;137888;-39
2021/10/07 20:26:42;;;;;;;11.63;6.35;;;9.50;99.90;;;7.85;96.93;102566.84;2569625;30;136704;-39
2021/10/07 20:29:10;;;;;;;10.68;6.55;;;9.50;99.90;;;7.81;97.08;102570.88;2568883;30;137423;-39
2021/10/07 20:31:41;;;;;;;10.52;6.28;;;9.50;99.90;;;7.77;96.97;102564.03;2567442;30;137274;-39
2021/10/07 20:37:07;;;;;;;11.68;7.35;;;9.40;99.90;;;7.75;97.72;102571.47;2569926;30;137663;-39
2021/10/07 20:39:42;;;;;;;12.10;7.20;;;9.50;99.90;;;7.72;98.18;102567.19;2568736;30;138932;-39
2021/10/07 20:42:14;;;;;;;12.77;7.65;;;9.40;99.90;;;7.70;98.39;102565.66;2568607;30;137562;-39
2021/10/07 20:44:45;;;;;;;11.90;6.85;;;9.40;99.90;;;7.67;98.56;102564.06;2570441;30;137487;-39
2021/10/07 20:47:14;;;;;;;13.50;7.00;;;9.40;99.90;;;7.66;98.51;102567.78;2569541;30;137424;-39
2021/10/07 20:49:45;;;;;;;12.90;6.80;;;9.30;99.90;;;7.62;97.91;102572.66;2570220;30;137844;-39
2021/10/07 20:52:13;;;;;;;12.90;7.00;;;9.30;99.90;;;7.57;97.81;102574.97;2568006;30;137913;-39
2021/10/07 20:54:42;;;;;;;11.35;6.97;;;9.30;99.90;;;7.55;98.04;102577.00;2571656;30;138680;-39
2021/10/07 20:57:09;;;;;;;11.15;7.00;;;9.20;99.90;;;7.53;98.02;102578.13;2570339;30;136762;-39
2021/10/07 20:59:37;;;;;;;13.02;7.53;;;9.20;99.90;;;7.48;98.20;102576.72;2569929;30;137095;-39
2021/10/07 21:02:07;;;;;;;11.40;6.78;;;9.20;99.90;;;7.44;98.24;102569.88;2568804;30;137671;-40
2021/10/07 21:04:35;;;;;;;12.35;7.03;;;9.20;99.90;;;7.41;98.29;102572.03;2569737;30;139370;-39
2021/10/07 21:07:03;;;;;;;14.18;7.32;;;9.10;99.90;;;7.38;98.59;102575.06;2568982;30;137367;-39
2021/10/07 21:09:31;;;;;;;;;;;9.10;99.90;;;7.37;99.00;102579.66;2568974;30;139121;-39
2021/10/07 21:11:59;;;;;;;12.68;6.85;;;9.10;99.90;;;7.34;99.16;102579.94;2569296;30;137851;-39
2021/10/07 21:14:26;;;;;;;14.10;7.70;;;9.10;99.90;;;7.34;99.04;102585.38;2569903;30;137421;-38
2021/10/07 21:16:54;;;;;;;13.50;7.15;;;9.00;99.90;;;7.30;99.10;102581.25;2569026;30;137644;-39
2021/10/07 21:19:21;;;;;;;13.27;6.72;;;9.00;99.90;;;7.27;99.35;102584.22;2569646;30;136758;-39
2021/10/07 21:21:49;;;;;;;13.38;7.25;;;9.00;99.90;;;7.25;99.31;102586.25;2570044;30;137793;-39
2021/10/07 21:24:16;;;;;;;10.07;6.30;;;8.90;99.90;;;7.23;99.20;102593.69;2568516;30;138150;-38
2021/10/07 21:26:44;;;;;;;11.15;6.25;;;8.90;99.90;;;7.18;98.62;102592.25;2570573;30;137168;-39
2021/10/07 21:29:12;;;;;;;12.10;6.80;;;8.90;99.90;;;7.17;98.44;102595.13;2569853;30;137237;-39
2021/10/07 21:31:39;;;;;;;13.07;7.13;;;8.90;99.90;;;7.11;98.43;102584.84;2569709;30;137605;-39
2021/10/07 21:34:08;;;;;;;15.35;7.75;;;8.80;99.90;;;7.08;98.29;102582.44;2569566;30;138107;-39
2021/10/07 21:36:35;;;;;;;13.02;7.22;;;8.80;99.90;;;7.02;98.35;102582.00;2566785;30;136844;-39
2021/10/07 21:39:04;;;;;;;12.00;7.43;;;8.80;99.90;;;7.04;98.48;102596.28;2569680;30;138396;-39
2021/10/07 21:41:31;;;;;;;13.32;7.32;;;8.70;99.90;;;7.00;99.34;102583.16;2567235;30;137827;-39
2021/10/07 21:43:59;;;;;;;11.20;6.93;;;8.70;99.90;;;6.99;99.68;102585.03;2571158;30;138989;-39
2021/10/07 21:46:28;;;;;;;13.45;7.32;;;8.70;99.90;;;6.95;99.53;102585.44;2567129;30;138192;-39
2021/10/07 21:48:55;;;;;;;11.50;6.82;;;8.70;99.90;;;6.94;99.38;102591.88;2570008;30;138162;-39
2021/10/07 21:51:23;;;;;;;10.90;7.28;;;8.70;99.90;;;6.89;98.82;102590.47;2567516;30;138428;-39
2021/10/07 21:53:51;;;;;;;11.45;7.30;;;8.60;99.90;;;6.88;98.87;102601.44;2568410;30;137853;-39
2021/10/07 21:56:18;;;;;;;11.63;6.65;;;8.60;99.90;;;6.85;99.11;102594.47;2568262;30;138469;-39
2021/10/07 21:58:46;;;;;;;12.15;6.63;;;8.60;99.90;;;6.84;99.28;102600.03;2567915;30;138201;-39
2021/10/07 22:01:14;;;;;;;11.48;6.60;;;8.60;99.90;;;6.82;99.38;102597.47;2568477;30;137417;-39
2021/10/07 22:03:41;;;;;;;13.25;7.25;;;8.60;99.90;;;6.84;99.31;102595.47;2569656;30;138457;-39
2021/10/07 22:06:09;;;;;;;11.18;6.70;;;8.60;99.90;;;6.79;99.02;102596.91;2570149;30;137833;-39
2021/10/07 22:08:37;;;;;;;11.70;6.32;;;8.50;99.90;;;6.75;99.15;102596.31;2571022;30;138068;-39
2021/10/07 22:11:06;;;;;;;11.45;6.68;;;8.50;99.90;;;6.72;99.04;102591.19;2569568;30;138496;-39
2021/10/07 22:13:33;;;;;;;12.50;6.32;;;8.40;99.90;;;6.68;99.31;102585.19;2569007;30;138266;-39
2021/10/07 22:16:01;;;;;;;12.88;7.22;;;8.40;99.90;;;6.69;99.48;102589.63;2569862;30;138320;-39
2021/10/07 22:18:29;;;;;;;13.85;6.55;;;8.40;99.90;;;6.67;99.43;102596.19;2568365;30;139278;-39
2021/10/07 22:20:56;;;;;;;12.18;6.22;;;8.40;99.90;;;6.62;99.52;102593.88;2569404;30;136936;-39
2021/10/07 22:23:24;;;;;;;11.02;5.93;;;8.40;99.90;;;6.61;99.56;102589.47;2569614;30;139019;-39
2021/10/07 22:25:51;;;;;;;10.25;6.25;;;8.30;99.90;;;6.61;99.50;102597.59;2569572;30;137678;-39
2021/10/07 22:28:19;;;;;;;11.40;6.05;;;8.30;99.90;;;6.58;99.58;102606.03;2569919;30;139416;-39
2021/10/07 22:30:49;;;;;;;9.32;5.35;;;8.30;99.90;;;6.54;99.54;102605.47;2568747;30;138210;-39
2021/10/07 22:33:17;;;;;;;11.40;6.65;;;8.30;99.90;;;6.53;99.68;102600.19;2568938;30;138987;-39
2021/10/07 22:35:46;;;;;;;9.73;5.63;;;8.30;99.90;;;6.52;99.83;102603.88;2570956;30;137663;-39
2021/10/07 22:38:15;;;;;;;10.48;5.38;;;8.30;99.90;;;6.50;100.00;102592.34;2569712;30;138420;-39
2021/10/07 22:40:43;;;;;;;8.77;5.43;;;8.20;99.90;;;6.46;100.00;102598.03;2570192;30;136908;-39
2021/10/07 22:43:11;;;;;;;10.30;5.90;;;8.20;99.90;;;6.43;100.00;102606.47;2569309;30;137404;-39
2021/10/07 22:45:39;;;;;;;11.20;6.28;;;8.20;99.90;;;6.44;100.00;102599.16;2570807;30;137606;-39
2021/10/07 22:48:07;;;;;;;9.68;5.78;;;8.20;99.90;;;6.44;100.00;102599.16;2570730;30;138301;-39
2021/10/07 22:50:37;;;;;;;10.93;5.85;;;8.20;99.90;;;6.42;100.00;102607.47;2570278;30;137668;-39
2021/10/07 22:53:06;;;;;;;9.18;5.40;;;8.20;99.90;;;6.42;100.00;102599.31;2569481;30;137389;-39
2021/10/07 22:55:34;;;;;;;10.95;5.65;;;8.20;99.90;;;6.40;100.00;102611.31;2568116;30;138347;-39
2021/10/07 22:58:02;;;;;;;9.57;5.13;;;8.10;99.90;;;6.36;100.00;102602.56;2569205;30;138672;-39
2021/10/07 23:00:30;;;;;;;11.00;6.07;;;8.10;99.90;;;6.32;100.00;102596.59;2570326;30;136865;-39
2021/10/07 23:02:58;;;;;;;10.95;5.85;;;8.10;99.90;;;6.34;100.00;102604.56;2569397;30;138397;-39
2021/10/07 23:05:25;;;;;;;10.73;5.72;;;8.10;99.90;;;6.34;100.00;102615.41;2568985;30;136966;-39
2021/10/07 23:07:53;;;;;;;8.65;4.72;;;8.10;99.90;;;6.34;100.00;102612.72;2569672;30;137728;-39
2021/10/07 23:10:21;;;;;;;12.25;5.35;;;8.10;99.90;;;6.29;100.00;102610.44;2567147;30;137340;-39
2021/10/07 23:12:48;;;;;;;8.25;5.03;;;8.00;99.90;;;6.26;100.00;102618.84;2570111;30;137452;-39
2021/10/07 23:15:16;;;;;;;9.18;5.50;;;8.00;99.90;;;6.21;100.00;102612.13;2568629;30;137022;-39
2021/10/07 23:17:43;;;;;;;8.93;4.80;;;7.90;99.90;;;6.14;100.00;102615.41;2570586;30;137356;-39
2021/10/07 23:20:12;;;;;;;8.50;5.07;;;7.90;99.90;;;6.10;100.00;102613.97;2570542;30;137590;-39
2021/10/07 23:22:39;;;;;;;8.13;4.70;;;7.90;99.90;;;6.08;99.95;102612.38;2569328;30;138715;-39
2021/10/07 23:25:08;;;;;;;8.20;4.57;;;7.80;99.90;;;6.04;100.00;102615.38;2569538;30;136855;-39
2021/10/07 23:27:35;;;;;;;;;;;7.80;99.90;;;6.01;100.00;102609.38;2569221;30;138449;-39
2021/10/07 23:30:07;;;;;;;8.32;4.40;;;7.80;99.90;;;5.95;99.84;102609.91;2567142;30;138195;-39
2021/10/07 23:32:35;;;;;;;8.85;5.10;;;7.70;99.90;;;5.92;99.55;102604.75;2568113;30;138485;-39
2021/10/07 23:35:05;;;;;;;9.15;5.05;;;7.70;99.90;;;5.93;99.71;102620.03;2569658;30;138436;-39
2021/10/07 23:37:33;;;;;;;7.05;4.35;;;7.70;99.90;;;5.86;99.62;102612.44;2569926;30;138115;-39
2021/10/07 23:40:01;;;;;;;;;;;7.60;99.90;;;5.75;99.68;102607.13;2568533;30;137788;-39
2021/10/07 23:42:28;;;;;;;7.47;4.43;;;7.50;99.90;;;5.77;99.69;102624.09;2568502;30;138311;-39
2021/10/07 23:44:56;;;;;;;8.88;4.70;;;7.50;99.90;;;5.74;99.78;102624.34;2569993;30;137445;-39
2021/10/07 23:47:24;;;;;;;10.38;5.30;;;7.50;99.90;;;5.70;99.95;102620.22;2567106;30;138634;-39
2021/10/07 23:49:52;;;;;;;10.63;4.93;;;7.50;99.90;;;5.66;99.75;102618.78;2568283;30;137314;-39
2021/10/07 23:52:20;;;;;;;11.25;4.95;;;7.40;99.90;;;5.63;99.73;102619.88;2569515;30;137086;-39
2021/10/07 23:54:48;;;;;;;10.00;5.22;;;7.40;99.90;;;5.61;99.93;102620.03;2569055;30;138662;-39
2021/10/07 23:57:15;;;;;;;10.15;4.70;;;7.40;99.90;;;5.57;100.00;102629.44;2568448;30;138248;-39
2021/10/07 23:59:43;;;;;;;11.25;5.22;;;7.30;99.90;;;5.56;99.89;102622.28;2570615;30;137010;-39
